Time;durP1;ratioP1;P1;durP2;ratioP2;P2;SDS_P1;SDS_P2;PMS_P1;PMS_P2;Temp;Humidity;BMP_temperature;BMP_pressure;BME280_temperature;BME280_humidity;BME280_pressure;Samples;Min_cycle;Max_cycle;Signal;HPM_P1;HPM_P2
2023/01/24 00:00:09;;;;;;;12.25;5.53;;;;;;;;;;7387191;19;20002;-77
2023/01/24 00:02:35;;;;;;;14.00;6.55;;;;;;;;;;7386598;19;20074;-77
2023/01/24 00:05:00;;;;;;;14.60;6.45;;;;;;;;;;7386114;19;20393;-77
2023/01/24 00:07:25;;;;;;;16.58;6.82;;;;;;;;;;7390126;19;20009;-75
2023/01/24 00:09:51;;;;;;;14.75;6.85;;;;;;;;;;7387181;19;19998;-75
2023/01/24 00:12:16;;;;;;;18.65;8.15;;;;;;;;;;7387115;19;20120;-77
2023/01/24 00:14:41;;;;;;;14.55;5.03;;;;;;;;;;7384519;19;20353;-77
2023/01/24 00:17:07;;;;;;;15.10;7.70;;;;;;;;;;7387652;19;20144;-76
2023/01/24 00:19:33;;;;;;;13.20;6.75;;;;;;;;;;7384488;19;20015;-77
2023/01/24 00:21:59;;;;;;;19.30;8.73;;;;;;;;;;7387406;19;20050;-77
2023/01/24 00:24:26;;;;;;;13.52;6.43;;;;;;;;;;7386412;19;20006;-77
2023/01/24 00:26:51;;;;;;;16.25;8.27;;;;;;;;;;7387119;19;20002;-76
2023/01/24 00:29:16;;;;;;;10.70;5.72;;;;;;;;;;7386561;19;20104;-77
2023/01/24 00:31:42;;;;;;;13.20;7.50;;;;;;;;;;7386669;19;20015;-77
2023/01/24 00:34:07;;;;;;;17.25;7.35;;;;;;;;;;7390109;19;19994;-77
2023/01/24 00:36:32;;;;;;;15.30;7.30;;;;;;;;;;7384107;19;20371;-77
2023/01/24 00:38:58;;;;;;;13.68;6.90;;;;;;;;;;7385103;19;20002;-77
2023/01/24 00:41:23;;;;;;;22.98;7.35;;;;;;;;;;7385746;19;20007;-77
2023/01/24 00:43:48;;;;;;;13.98;7.38;;;;;;;;;;7384965;19;20006;-76
2023/01/24 00:46:14;;;;;;;13.85;7.45;;;;;;;;;;7383728;19;20377;-76
2023/01/24 00:48:39;;;;;;;16.45;7.80;;;;;;;;;;7385824;19;20010;-77
2023/01/24 00:51:05;;;;;;;15.57;6.78;;;;;;;;;;7385289;19;20028;-76
2023/01/24 00:53:30;;;;;;;24.30;9.43;;;;;;;;;;7386668;19;20018;-76
2023/01/24 00:55:55;;;;;;;17.42;7.55;;;;;;;;;;7390944;19;20413;-77
2023/01/24 00:58:21;;;;;;;15.00;7.95;;;;;;;;;;7392083;19;20020;-76
2023/01/24 01:00:47;;;;;;;14.65;6.38;;;;;;;;;;7390581;19;20627;-76
2023/01/24 01:03:16;;;;;;;17.25;7.72;;;;;;;;;;7391149;19;20118;-77
2023/01/24 01:05:42;;;;;;;13.82;7.35;;;;;;;;;;7390683;19;20006;-77
2023/01/24 01:08:07;;;;;;;14.90;7.60;;;;;;;;;;7391727;19;20019;-76
2023/01/24 01:10:32;;;;;;;15.27;6.95;;;;;;;;;;7391576;19;20003;-76
2023/01/24 01:12:58;;;;;;;17.55;8.15;;;;;;;;;;7390860;19;20006;-76
2023/01/24 01:15:23;;;;;;;12.98;6.63;;;;;;;;;;7390649;19;20010;-76
2023/01/24 01:17:48;;;;;;;17.20;8.68;;;;;;;;;;7391670;19;19999;-77
2023/01/24 01:20:14;;;;;;;15.88;7.63;;;;;;;;;;7390120;19;20003;-76
2023/01/24 01:22:39;;;;;;;19.65;8.20;;;;;;;;;;7392175;19;20022;-76
2023/01/24 01:25:05;;;;;;;18.98;8.60;;;;;;;;;;7390280;19;19999;-76
2023/01/24 01:27:30;;;;;;;16.58;8.90;;;;;;;;;;7391315;19;20262;-76
2023/01/24 01:29:55;;;;;;;16.60;8.00;;;;;;;;;;7391260;19;20010;-76
2023/01/24 01:32:21;;;;;;;14.02;6.80;;;;;;;;;;7395200;19;20010;-77
2023/01/24 01:34:46;;;;;;;16.55;7.90;;;;;;;;;;7390197;19;20036;-76
2023/01/24 01:37:11;;;;;;;12.55;6.70;;;;;;;;;;7390660;19;19995;-77
2023/01/24 01:39:37;;;;;;;16.45;8.48;;;;;;;;;;7390343;19;19995;-76
2023/01/24 01:42:02;;;;;;;15.20;7.93;;;;;;;;;;7390926;19;19999;-77
2023/01/24 01:44:40;;;;;;;19.73;7.90;;;;;;;;;;7390070;19;20122;-76
2023/01/24 01:47:14;;;;;;;17.52;7.70;;;;;;;;;;7390624;19;20001;-78
2023/01/24 01:49:44;;;;;;;16.85;8.65;;;;;;;;;;7390577;19;20006;-77
2023/01/24 01:52:10;;;;;;;16.83;7.32;;;;;;;;;;7390443;19;20096;-77
2023/01/24 01:54:41;;;;;;;19.08;7.72;;;;;;;;;;7389466;19;20114;-77
2023/01/24 01:57:12;;;;;;;16.13;6.53;;;;;;;;;;7389979;19;20010;-76
2023/01/24 01:59:43;;;;;;;16.83;7.77;;;;;;;;;;7388871;19;20007;-77
2023/01/24 02:02:10;;;;;;;13.77;6.53;;;;;;;;;;7390643;19;20228;-77
2023/01/24 02:04:37;;;;;;;15.63;7.63;;;;;;;;;;7388889;19;19999;-77
2023/01/24 02:07:26;;;;;;;12.30;6.85;;;;;;;;;;7388352;19;20145;-77
2023/01/24 02:09:54;;;;;;;17.98;8.40;;;;;;;;;;7392338;19;20023;-76
2023/01/24 02:12:32;;;;;;;16.40;8.27;;;;;;;;;;7394662;19;20413;-76
2023/01/24 02:17:50;;;;;;;13.57;6.70;;;;;;;;;;7397970;19;20348;-77
2023/01/24 02:20:20;;;;;;;16.17;8.52;;;;;;;;;;7389303;19;20024;-76
2023/01/24 02:23:21;;;;;;;16.25;7.47;;;;;;;;;;7389925;19;20456;-75
2023/01/24 02:26:09;;;;;;;16.15;8.25;;;;;;;;;;7389032;19;20002;-76
2023/01/24 02:28:34;;;;;;;16.00;7.95;;;;;;;;;;7390019;19;20062;-76
2023/01/24 02:31:01;;;;;;;14.05;7.05;;;;;;;;;;7388655;19;20006;-76
2023/01/24 02:33:27;;;;;;;16.17;8.25;;;;;;;;;;7389361;19;19998;-77
2023/01/24 02:36:20;;;;;;;19.65;7.88;;;;;;;;;;7388335;19;20009;-77
2023/01/24 02:38:52;;;;;;;18.17;7.97;;;;;;;;;;7391302;19;20034;-75
2023/01/24 02:41:21;;;;;;;15.82;7.13;;;;;;;;;;7390810;19;20007;-76
2023/01/24 02:43:49;;;;;;;19.52;7.75;;;;;;;;;;7391111;19;20006;-77
2023/01/24 02:46:15;;;;;;;15.13;6.35;;;;;;;;;;7389097;19;20020;-76
2023/01/24 02:48:40;;;;;;;15.40;8.00;;;;;;;;;;7389162;19;20747;-77
2023/01/24 02:53:49;;;;;;;11.00;5.10;;;;;;;;;;7389357;19;20013;-76
2023/01/24 02:58:59;;;;;;;7.88;4.20;;;;;;;;;;7388326;19;20006;-76
2023/01/24 03:01:24;;;;;;;14.93;6.43;;;;;;;;;;7388278;19;19995;-76
2023/01/24 03:03:50;;;;;;;10.27;5.72;;;;;;;;;;7391633;19;20002;-76
2023/01/24 03:06:17;;;;;;;18.45;7.60;;;;;;;;;;7388126;19;20003;-77
2023/01/24 03:08:43;;;;;;;9.20;4.88;;;;;;;;;;7388335;19;19998;-76
2023/01/24 03:11:09;;;;;;;10.43;4.78;;;;;;;;;;7389198;19;20015;-77
2023/01/24 03:35:29;;;;;;;16.20;8.30;;;;;;;;;;7387641;19;20023;-76
2023/01/24 03:40:38;;;;;;;16.95;8.43;;;;;;;;;;7391163;19;20011;-76
2023/01/24 03:43:04;;;;;;;19.00;8.57;;;;;;;;;;7387300;19;20459;-76
2023/01/24 03:45:32;;;;;;;18.95;8.65;;;;;;;;;;7386975;19;20050;-76
2023/01/24 03:47:59;;;;;;;19.88;9.32;;;;;;;;;;7385939;19;20058;-74
2023/01/24 03:53:16;;;;;;;19.42;8.98;;;;;;;;;;7386038;19;20116;-74
2023/01/24 03:55:41;;;;;;;18.75;8.80;;;;;;;;;;7384227;19;20102;-76
2023/01/24 03:58:08;;;;;;;15.82;7.07;;;;;;;;;;7386383;19;20007;-76
2023/01/24 04:00:34;;;;;;;17.10;8.13;;;;;;;;;;7382871;19;20006;-75
2023/01/24 04:03:00;;;;;;;18.25;8.40;;;;;;;;;;7385982;19;19995;-75
2023/01/24 04:05:25;;;;;;;21.02;8.95;;;;;;;;;;7382520;19;20001;-76
2023/01/24 04:07:52;;;;;;;19.27;9.25;;;;;;;;;;7386710;19;19991;-76
2023/01/24 04:10:18;;;;;;;21.17;8.20;;;;;;;;;;7386043;19;19991;-77
2023/01/24 04:12:44;;;;;;;13.23;6.40;;;;;;;;;;7385935;19;20093;-75
2023/01/24 04:15:19;;;;;;;18.33;8.48;;;;;;;;;;7386339;19;20054;-76
2023/01/24 04:17:44;;;;;;;19.27;9.70;;;;;;;;;;7387527;19;20464;-76
2023/01/24 04:20:10;;;;;;;15.68;7.60;;;;;;;;;;7385447;19;20014;-75
2023/01/24 04:22:35;;;;;;;21.63;9.75;;;;;;;;;;7385739;19;20002;-76
2023/01/24 04:25:00;;;;;;;18.23;9.07;;;;;;;;;;7384218;19;20002;-76
2023/01/24 04:27:25;;;;;;;19.35;8.82;;;;;;;;;;7386007;19;20015;-74
2023/01/24 04:29:51;;;;;;;22.25;9.55;;;;;;;;;;7398355;19;19998;-76
2023/01/24 04:32:16;;;;;;;18.08;8.63;;;;;;;;;;7399744;19;19998;-75
2023/01/24 04:34:41;;;;;;;18.02;7.78;;;;;;;;;;7392886;19;20002;-75
2023/01/24 04:37:07;;;;;;;18.02;8.27;;;;;;;;;;7395824;19;19999;-76
2023/01/24 04:39:32;;;;;;;17.98;8.35;;;;;;;;;;7392588;19;20110;-75
2023/01/24 04:41:57;;;;;;;19.38;8.57;;;;;;;;;;7393313;19;20005;-75
2023/01/24 04:44:23;;;;;;;20.23;9.20;;;;;;;;;;7392423;19;20020;-76
2023/01/24 04:46:48;;;;;;;14.50;6.88;;;;;;;;;;7389861;19;20066;-75
2023/01/24 04:49:13;;;;;;;19.20;9.52;;;;;;;;;;7396829;19;20002;-75
2023/01/24 04:51:42;;;;;;;19.20;9.48;;;;;;;;;;7396746;19;20083;-75
2023/01/24 04:54:08;;;;;;;17.48;8.77;;;;;;;;;;7393191;19;20006;-75
2023/01/24 04:56:34;;;;;;;22.48;10.00;;;;;;;;;;7392322;19;20014;-77
2023/01/24 04:58:59;;;;;;;19.23;8.93;;;;;;;;;;7392098;19;20002;-75
2023/01/24 05:01:24;;;;;;;19.65;9.07;;;;;;;;;;7390852;19;20005;-75
2023/01/24 05:03:49;;;;;;;14.23;6.82;;;;;;;;;;7391464;19;20072;-76
2023/01/24 05:06:15;;;;;;;16.27;9.15;;;;;;;;;;7389992;19;20504;-75
2023/01/24 05:08:40;;;;;;;13.55;7.28;;;;;;;;;;7390317;19;20018;-76
2023/01/24 05:11:05;;;;;;;19.42;7.47;;;;;;;;;;7391966;19;20111;-77
2023/01/24 05:13:31;;;;;;;15.05;7.30;;;;;;;;;;7391839;19;20006;-77
2023/01/24 05:15:56;;;;;;;17.95;7.90;;;;;;;;;;7389080;19;20003;-74
2023/01/24 05:18:21;;;;;;;18.98;7.60;;;;;;;;;;7391780;19;20316;-76
2023/01/24 05:20:47;;;;;;;17.90;8.38;;;;;;;;;;7388083;19;20015;-76
2023/01/24 05:23:12;;;;;;;18.45;8.00;;;;;;;;;;7395817;19;20126;-75
2023/01/24 05:25:38;;;;;;;17.10;8.48;;;;;;;;;;7390341;19;20038;-75
2023/01/24 05:28:03;;;;;;;12.57;7.13;;;;;;;;;;7391189;19;20045;-74
2023/01/24 05:30:29;;;;;;;18.77;8.27;;;;;;;;;;7390829;19;20531;-75
2023/01/24 05:32:58;;;;;;;18.60;8.00;;;;;;;;;;7390063;19;19995;-75
2023/01/24 05:35:24;;;;;;;13.55;7.10;;;;;;;;;;7388577;19;20468;-75
2023/01/24 05:37:49;;;;;;;11.15;5.60;;;;;;;;;;7390188;19;20017;-76
2023/01/24 05:40:15;;;;;;;12.55;7.00;;;;;;;;;;7388806;19;20535;-74
2023/01/24 05:42:42;;;;;;;18.92;9.48;;;;;;;;;;7393648;19;20078;-76
2023/01/24 05:45:09;;;;;;;15.98;8.77;;;;;;;;;;7393831;19;20023;-76
2023/01/24 05:47:34;;;;;;;18.17;7.68;;;;;;;;;;7394405;19;20015;-76
2023/01/24 05:49:59;;;;;;;18.60;8.45;;;;;;;;;;7392602;19;19991;-75
2023/01/24 05:52:25;;;;;;;18.38;8.00;;;;;;;;;;7391922;19;20006;-75
2023/01/24 05:54:51;;;;;;;15.40;6.45;;;;;;;;;;7391944;19;19994;-74
2023/01/24 05:57:17;;;;;;;17.10;7.85;;;;;;;;;;7394126;19;20021;-76
2023/01/24 05:59:42;;;;;;;15.35;7.28;;;;;;;;;;7392734;19;19999;-75
2023/01/24 06:02:07;;;;;;;15.90;7.72;;;;;;;;;;7391904;19;19994;-74
2023/01/24 06:04:33;;;;;;;14.98;6.85;;;;;;;;;;7389258;19;20010;-77
2023/01/24 06:06:58;;;;;;;14.23;5.93;;;;;;;;;;7389881;19;20414;-73
2023/01/24 06:09:24;;;;;;;16.30;7.63;;;;;;;;;;7389521;19;20058;-75
2023/01/24 06:11:49;;;;;;;17.33;6.57;;;;;;;;;;7392608;19;19998;-75
2023/01/24 06:14:15;;;;;;;16.92;7.60;;;;;;;;;;7393093;19;20445;-75
2023/01/24 06:16:45;;;;;;;17.70;8.05;;;;;;;;;;7391627;19;20006;-77
2023/01/24 06:19:11;;;;;;;12.88;6.55;;;;;;;;;;7391979;19;19994;-75
2023/01/24 06:21:47;;;;;;;13.60;6.55;;;;;;;;;;7394289;19;20015;-75
2023/01/24 06:24:21;;;;;;;15.75;7.13;;;;;;;;;;7393023;19;19995;-74
2023/01/24 06:26:49;;;;;;;12.88;6.40;;;;;;;;;;7392357;19;20520;-75
2023/01/24 06:29:15;;;;;;;12.65;6.30;;;;;;;;;;7391013;19;20003;-76
2023/01/24 06:31:52;;;;;;;11.40;5.00;;;;;;;;;;7394011;19;20018;-75
2023/01/24 06:34:56;;;;;;;13.93;6.78;;;;;;;;;;7349378;19;19998;-75
2023/01/24 06:37:24;;;;;;;9.95;5.40;;;;;;;;;;7390962;19;19991;-76
2023/01/24 06:39:51;;;;;;;15.57;7.47;;;;;;;;;;7390148;19;19994;-75
2023/01/24 06:42:18;;;;;;;18.02;8.07;;;;;;;;;;7392108;19;20062;-75
2023/01/24 06:44:44;;;;;;;12.32;6.70;;;;;;;;;;7391386;19;20003;-75
2023/01/24 06:47:10;;;;;;;19.33;6.78;;;;;;;;;;7392152;19;20341;-75
2023/01/24 06:49:36;;;;;;;14.90;7.70;;;;;;;;;;7391592;19;20555;-75
2023/01/24 06:52:01;;;;;;;16.75;7.68;;;;;;;;;;7390485;19;20050;-75
2023/01/24 06:54:26;;;;;;;18.55;7.90;;;;;;;;;;7393030;19;19999;-75
2023/01/24 06:56:51;;;;;;;16.38;7.80;;;;;;;;;;7391461;19;19997;-74
2023/01/24 06:59:17;;;;;;;15.77;7.32;;;;;;;;;;7391915;19;20101;-76
2023/01/24 07:01:42;;;;;;;16.90;8.20;;;;;;;;;;7390549;19;20638;-76
2023/01/24 07:04:07;;;;;;;22.67;8.52;;;;;;;;;;7386732;19;20437;-74
2023/01/24 07:06:33;;;;;;;17.77;8.57;;;;;;;;;;7385931;19;19999;-74
2023/01/24 07:08:58;;;;;;;12.18;5.68;;;;;;;;;;7384248;19;20014;-74
2023/01/24 07:11:24;;;;;;;18.13;6.90;;;;;;;;;;7390131;19;20003;-75
2023/01/24 07:13:49;;;;;;;12.63;5.80;;;;;;;;;;7390415;19;20029;-75
2023/01/24 07:16:14;;;;;;;13.07;6.10;;;;;;;;;;7388610;19;20009;-75
2023/01/24 07:18:40;;;;;;;14.38;6.60;;;;;;;;;;7388747;19;19999;-76
2023/01/24 07:21:09;;;;;;;17.42;5.93;;;;;;;;;;7384653;19;20006;-75
2023/01/24 07:23:36;;;;;;;6.03;3.20;;;;;;;;;;7384210;19;20005;-75
2023/01/24 07:26:03;;;;;;;16.45;7.13;;;;;;;;;;7385548;19;20003;-76
2023/01/24 07:28:28;;;;;;;15.27;7.43;;;;;;;;;;7388214;19;20033;-74
2023/01/24 07:30:55;;;;;;;9.70;4.43;;;;;;;;;;7392614;19;19995;-74
2023/01/24 07:33:20;;;;;;;6.68;4.07;;;;;;;;;;7394785;19;19998;-76
2023/01/24 07:35:46;;;;;;;13.35;6.38;;;;;;;;;;7390203;19;20002;-74
2023/01/24 07:38:11;;;;;;;11.38;5.07;;;;;;;;;;7392095;19;20047;-75
2023/01/24 07:40:37;;;;;;;14.23;5.68;;;;;;;;;;7387197;19;20479;-76
2023/01/24 07:43:04;;;;;;;18.75;8.13;;;;;;;;;;7390301;19;20002;-75
2023/01/24 07:45:30;;;;;;;14.35;6.45;;;;;;;;;;7388764;19;20014;-74
2023/01/24 07:47:57;;;;;;;14.32;6.97;;;;;;;;;;7390156;19;20109;-75
2023/01/24 07:50:26;;;;;;;15.48;6.90;;;;;;;;;;7390361;19;20027;-75
2023/01/24 07:52:54;;;;;;;14.38;6.38;;;;;;;;;;7390257;19;20006;-74
2023/01/24 07:55:20;;;;;;;12.90;6.53;;;;;;;;;;7389725;19;20020;-75
2023/01/24 07:57:45;;;;;;;13.07;6.50;;;;;;;;;;7390352;19;19998;-74
2023/01/24 08:00:11;;;;;;;15.93;6.93;;;;;;;;;;7390307;19;19995;-75
2023/01/24 08:02:36;;;;;;;16.30;7.13;;;;;;;;;;7390189;19;20009;-77
2023/01/24 08:05:02;;;;;;;21.38;8.48;;;;;;;;;;7396681;19;20004;-74
2023/01/24 08:07:27;;;;;;;15.63;6.93;;;;;;;;;;7398620;19;20005;-74
2023/01/24 08:09:52;;;;;;;22.77;8.60;;;;;;;;;;7413192;19;20410;-76
2023/01/24 08:12:18;;;;;;;16.88;8.18;;;;;;;;;;7415129;19;19995;-72
2023/01/24 08:14:43;;;;;;;19.60;8.07;;;;;;;;;;7416620;19;20045;-75
2023/01/24 08:17:10;;;;;;;18.48;7.68;;;;;;;;;;7402169;19;19998;-74
2023/01/24 08:19:35;;;;;;;15.32;7.45;;;;;;;;;;7398076;19;20003;-75
2023/01/24 08:22:02;;;;;;;18.02;8.23;;;;;;;;;;7399206;19;20009;-75
2023/01/24 08:24:27;;;;;;;20.35;7.85;;;;;;;;;;7397048;19;19995;-74
2023/01/24 08:26:53;;;;;;;19.60;7.55;;;;;;;;;;7394543;19;20470;-76
2023/01/24 08:29:18;;;;;;;18.25;8.02;;;;;;;;;;7398267;19;20005;-74
2023/01/24 08:31:43;;;;;;;13.68;6.28;;;;;;;;;;7394932;19;20003;-77
2023/01/24 08:34:09;;;;;;;16.15;7.10;;;;;;;;;;7397758;19;20046;-75
2023/01/24 08:36:35;;;;;;;17.70;9.02;;;;;;;;;;7392531;19;20052;-74
2023/01/24 08:39:02;;;;;;;16.27;7.47;;;;;;;;;;7395924;19;20125;-73
2023/01/24 08:41:28;;;;;;;18.83;8.68;;;;;;;;;;7397746;19;20003;-75
2023/01/24 08:43:53;;;;;;;18.75;7.55;;;;;;;;;;7395794;19;19997;-74
2023/01/24 08:46:18;;;;;;;15.70;6.65;;;;;;;;;;7393689;19;20024;-74
2023/01/24 08:48:44;;;;;;;12.48;5.85;;;;;;;;;;7395489;19;20066;-74
2023/01/24 08:51:09;;;;;;;15.23;7.22;;;;;;;;;;7398083;19;20437;-76
2023/01/24 08:53:34;;;;;;;20.40;7.55;;;;;;;;;;7392274;19;20535;-74
2023/01/24 08:56:00;;;;;;;15.38;6.75;;;;;;;;;;7394875;19;20041;-75
2023/01/24 08:58:25;;;;;;;20.85;8.35;;;;;;;;;;7392557;19;20003;-75
2023/01/24 09:00:50;;;;;;;19.40;8.13;;;;;;;;;;7391247;19;20007;-75
2023/01/24 09:03:17;;;;;;;15.52;7.60;;;;;;;;;;7394546;19;20028;-74
2023/01/24 09:05:43;;;;;;;18.70;6.60;;;;;;;;;;7395537;19;20082;-76
2023/01/24 09:08:09;;;;;;;12.93;5.40;;;;;;;;;;7394787;19;20019;-74
2023/01/24 09:10:35;;;;;;;18.52;8.05;;;;;;;;;;7394601;19;20010;-74
2023/01/24 09:13:02;;;;;;;18.20;7.85;;;;;;;;;;7394644;19;20092;-74
2023/01/24 09:15:27;;;;;;;14.07;6.40;;;;;;;;;;7395979;19;20006;-74
2023/01/24 09:17:53;;;;;;;19.58;7.38;;;;;;;;;;7398031;19;20005;-75
2023/01/24 09:20:18;;;;;;;19.70;7.90;;;;;;;;;;7390796;19;20018;-74
2023/01/24 09:22:44;;;;;;;19.88;8.52;;;;;;;;;;7392644;19;19998;-74
2023/01/24 09:25:09;;;;;;;25.50;8.07;;;;;;;;;;7393212;19;20402;-75
2023/01/24 09:27:37;;;;;;;18.02;7.53;;;;;;;;;;7394792;19;19995;-75
2023/01/24 09:30:07;;;;;;;17.70;8.23;;;;;;;;;;7393883;19;20006;-74
2023/01/24 09:32:32;;;;;;;16.08;7.43;;;;;;;;;;7391585;19;19997;-75
2023/01/24 09:34:57;;;;;;;18.70;7.57;;;;;;;;;;7392226;19;20058;-74
2023/01/24 09:37:23;;;;;;;16.65;6.80;;;;;;;;;;7392820;19;19995;-74
2023/01/24 09:39:48;;;;;;;15.35;7.25;;;;;;;;;;7394207;19;20019;-74
2023/01/24 09:42:40;;;;;;;18.00;8.25;;;;;;;;;;7392893;19;19990;-75
2023/01/24 09:47:57;;;;;;;17.27;7.82;;;;;;;;;;7394298;19;20010;-75
2023/01/24 09:50:28;;;;;;;17.27;8.32;;;;;;;;;;7392777;19;20010;-74
2023/01/24 09:52:57;;;;;;;20.58;7.55;;;;;;;;;;7392381;19;20409;-75
2023/01/24 09:55:30;;;;;;;16.67;7.53;;;;;;;;;;7393624;19;20482;-75
2023/01/24 09:58:01;;;;;;;28.20;8.20;;;;;;;;;;7393336;19;19998;-75
2023/01/24 10:00:39;;;;;;;;;;;;;;;;;;7389138;19;20002;-75
2023/01/24 10:03:22;;;;;;;16.25;7.07;;;;;;;;;;7392392;19;19918;-76
2023/01/24 10:05:54;;;;;;;14.75;5.95;;;;;;;;;;7393194;19;20014;-74
2023/01/24 10:08:19;;;;;;;18.42;8.00;;;;;;;;;;7391732;19;20023;-76
2023/01/24 10:10:51;;;;;;;20.55;7.47;;;;;;;;;;7389235;19;20000;-76
2023/01/24 10:13:28;;;;;;;18.75;7.38;;;;;;;;;;7390838;19;20389;-75
2023/01/24 10:16:44;;;;;;;14.32;7.07;;;;;;;;;;7394186;19;20006;-76
2023/01/24 10:19:24;;;;;;;16.55;7.43;;;;;;;;;;7389444;19;20002;-74
2023/01/24 10:22:12;;;;;;;14.50;6.93;;;;;;;;;;7393401;19;20006;-75
2023/01/24 10:24:40;;;;;;;11.32;5.50;;;;;;;;;;7391472;19;20342;-75
2023/01/24 10:27:27;;;;;;;12.98;6.72;;;;;;;;;;7391013;19;20023;-75
2023/01/24 10:30:13;;;;;;;10.98;5.55;;;;;;;;;;7392082;19;20003;-74
2023/01/24 10:32:43;;;;;;;13.00;6.10;;;;;;;;;;7393470;19;20003;-75
2023/01/24 10:35:21;;;;;;;19.13;7.28;;;;;;;;;;7392107;19;20007;-75
2023/01/24 10:37:55;;;;;;;18.63;6.57;;;;;;;;;;7394298;19;20103;-74
2023/01/24 10:40:21;;;;;;;19.65;7.03;;;;;;;;;;7390062;19;19998;-74
2023/01/24 10:42:47;;;;;;;6.65;3.53;;;;;;;;;;7390968;19;20009;-75
2023/01/24 10:45:34;;;;;;;16.83;7.45;;;;;;;;;;7393011;19;19990;-75
2023/01/24 10:48:22;;;;;;;16.90;7.35;;;;;;;;;;7393930;19;20006;-76
2023/01/24 10:50:47;;;;;;;14.55;5.93;;;;;;;;;;7389918;19;19999;-75
2023/01/24 10:53:24;;;;;;;11.07;5.32;;;;;;;;;;7390184;19;20002;-75
2023/01/24 10:55:56;;;;;;;10.57;5.45;;;;;;;;;;7393004;19;20007;-79
2023/01/24 10:58:27;;;;;;;15.07;5.72;;;;;;;;;;7390458;19;20003;-75
2023/01/24 11:01:18;;;;;;;15.27;6.95;;;;;;;;;;7389321;19;19998;-76
2023/01/24 11:03:45;;;;;;;12.63;5.22;;;;;;;;;;7392601;19;20006;-75
2023/01/24 11:06:37;;;;;;;15.02;7.03;;;;;;;;;;7390923;19;20123;-76
2023/01/24 11:09:23;;;;;;;15.38;6.78;;;;;;;;;;7391922;19;20003;-74
2023/01/24 11:11:54;;;;;;;16.27;6.57;;;;;;;;;;7387828;19;20467;-74
2023/01/24 11:14:22;;;;;;;12.13;5.95;;;;;;;;;;7384257;19;19998;-75
2023/01/24 11:16:50;;;;;;;13.15;5.50;;;;;;;;;;7384009;19;20040;-75
2023/01/24 11:19:39;;;;;;;14.38;5.80;;;;;;;;;;7384225;19;19999;-74
2023/01/24 11:22:24;;;;;;;15.23;6.40;;;;;;;;;;7388442;19;20481;-75
2023/01/24 11:24:50;;;;;;;12.20;5.38;;;;;;;;;;7385156;19;20009;-74
2023/01/24 11:27:18;;;;;;;8.77;5.22;;;;;;;;;;7386488;19;20007;-77
2023/01/24 11:29:44;;;;;;;11.50;5.68;;;;;;;;;;7391714;19;20070;-75
2023/01/24 11:32:36;;;;;;;15.75;6.07;;;;;;;;;;7392024;19;20033;-74
2023/01/24 11:35:01;;;;;;;11.45;5.47;;;;;;;;;;7389740;19;19995;-75
2023/01/24 11:37:36;;;;;;;11.57;5.78;;;;;;;;;;7387520;19;20023;-75
2023/01/24 11:40:20;;;;;;;12.48;5.65;;;;;;;;;;7387021;19;20003;-74
2023/01/24 11:42:54;;;;;;;20.25;6.63;;;;;;;;;;7388822;19;20477;-74
2023/01/24 11:45:28;;;;;;;13.23;6.10;;;;;;;;;;7389844;19;19999;-74
2023/01/24 11:48:22;;;;;;;12.18;5.38;;;;;;;;;;7400600;19;20032;-75
2023/01/24 11:51:13;;;;;;;11.93;5.50;;;;;;;;;;7389659;19;19995;-78
2023/01/24 11:54:01;;;;;;;8.90;4.40;;;;;;;;;;7390354;19;20560;-79
2023/01/24 11:56:39;;;;;;;12.50;5.90;;;;;;;;;;7385582;19;20019;-78
2023/01/24 11:59:14;;;;;;;13.80;6.10;;;;;;;;;;7383252;19;19999;-78
2023/01/24 12:02:03;;;;;;;11.38;5.32;;;;;;;;;;7390829;19;20473;-78
2023/01/24 12:04:59;;;;;;;11.63;5.80;;;;;;;;;;7389787;19;20002;-78
2023/01/24 12:07:52;;;;;;;11.18;5.30;;;;;;;;;;7388942;19;20362;-78
2023/01/24 12:10:31;;;;;;;10.57;5.40;;;;;;;;;;7388805;19;20015;-76
2023/01/24 12:13:27;;;;;;;13.48;6.28;;;;;;;;;;7388274;19;20007;-80
2023/01/24 12:16:12;;;;;;;13.90;5.13;;;;;;;;;;7390904;19;20002;-78
2023/01/24 12:18:59;;;;;;;12.73;6.13;;;;;;;;;;7388589;19;19999;-79
2023/01/24 12:21:25;;;;;;;9.15;4.90;;;;;;;;;;7387449;19;20007;-79
2023/01/24 12:24:02;;;;;;;11.77;5.43;;;;;;;;;;7391284;19;20026;-79
2023/01/24 12:26:32;;;;;;;8.45;4.20;;;;;;;;;;7389041;19;20103;-77
2023/01/24 12:29:15;;;;;;;10.30;5.28;;;;;;;;;;7392725;19;20010;-78
2023/01/24 12:31:54;;;;;;;12.60;5.88;;;;;;;;;;7390557;19;20007;-78
2023/01/24 12:34:39;;;;;;;11.20;5.13;;;;;;;;;;7386763;19;20013;-79
2023/01/24 12:37:19;;;;;;;12.07;5.28;;;;;;;;;;7390050;19;19998;-78
2023/01/24 12:40:07;;;;;;;8.63;4.35;;;;;;;;;;7390575;19;20484;-80
2023/01/24 12:43:03;;;;;;;14.95;5.97;;;;;;;;;;7389680;19;19998;-79
2023/01/24 12:45:40;;;;;;;13.50;5.07;;;;;;;;;;7391076;19;20007;-77
2023/01/24 12:48:21;;;;;;;11.45;6.25;;;;;;;;;;7392800;19;19999;-78
2023/01/24 12:50:53;;;;;;;9.65;5.20;;;;;;;;;;7395500;19;19998;-78
2023/01/24 12:53:34;;;;;;;14.38;5.65;;;;;;;;;;7397096;19;20012;-78
2023/01/24 12:56:11;;;;;;;9.65;5.00;;;;;;;;;;7397442;19;20330;-77
2023/01/24 12:58:42;;;;;;;10.40;3.70;;;;;;;;;;7395979;19;20440;-77
2023/01/24 13:01:16;;;;;;;15.13;5.95;;;;;;;;;;7395896;19;20012;-78
2023/01/24 13:04:09;;;;;;;14.80;5.85;;;;;;;;;;7397802;19;20002;-78
2023/01/24 13:06:43;;;;;;;13.43;5.22;;;;;;;;;;7393300;19;20024;-77
2023/01/24 13:09:34;;;;;;;9.65;4.82;;;;;;;;;;7395551;19;20294;-77
2023/01/24 13:12:03;;;;;;;9.65;4.85;;;;;;;;;;7397409;19;20037;-77
2023/01/24 13:14:46;;;;;;;15.70;6.18;;;;;;;;;;7392879;19;20001;-77
2023/01/24 13:17:36;;;;;;;14.55;5.38;;;;;;;;;;7392386;19;20062;-80
2023/01/24 13:20:34;;;;;;;13.45;6.18;;;;;;;;;;7395799;19;20398;-79
2023/01/24 13:23:11;;;;;;;13.43;5.95;;;;;;;;;;7395722;19;20121;-79
2023/01/24 13:25:58;;;;;;;13.73;5.93;;;;;;;;;;7395119;19;20010;-77
2023/01/24 13:28:34;;;;;;;10.98;5.97;;;;;;;;;;7395529;19;20217;-77
2023/01/24 13:31:18;;;;;;;13.18;5.80;;;;;;;;;;7397193;19;19995;-79
2023/01/24 13:33:47;;;;;;;10.77;5.68;;;;;;;;;;7393814;19;20011;-79
2023/01/24 13:36:19;;;;;;;11.40;5.85;;;;;;;;;;7396158;19;19994;-79
2023/01/24 13:38:45;;;;;;;9.55;4.80;;;;;;;;;;7396438;19;20019;-78
2023/01/24 13:41:31;;;;;;;14.35;6.65;;;;;;;;;;7394291;19;20006;-78
2023/01/24 13:44:06;;;;;;;12.20;5.68;;;;;;;;;;7395658;19;20038;-79
2023/01/24 13:46:43;;;;;;;12.00;5.13;;;;;;;;;;7390765;19;20014;-79
2023/01/24 13:49:39;;;;;;;14.65;6.25;;;;;;;;;;7394260;19;20032;-78
2023/01/24 13:52:33;;;;;;;10.75;5.53;;;;;;;;;;7391780;19;20009;-78
2023/01/24 13:55:00;;;;;;;7.57;3.65;;;;;;;;;;7391722;19;20359;-78
2023/01/24 13:57:27;;;;;;;12.40;6.18;;;;;;;;;;7393484;19;20682;-78
2023/01/24 14:00:41;;;;;;;15.68;5.75;;;;;;;;;;7393799;19;19998;-78
2023/01/24 14:03:12;;;;;;;11.40;4.50;;;;;;;;;;7395526;19;20002;-78
2023/01/24 14:05:48;;;;;;;12.48;5.03;;;;;;;;;;7393471;19;20471;-79
2023/01/24 14:08:32;;;;;;;14.85;5.82;;;;;;;;;;7396444;19;20006;-78
2023/01/24 14:11:03;;;;;;;6.90;3.70;;;;;;;;;;7397205;19;20055;-78
2023/01/24 14:13:47;;;;;;;;;;;;;;;;;;7396254;19;20014;-79
2023/01/24 14:16:35;;;;;;;13.35;5.53;;;;;;;;;;7396402;19;20314;-79
2023/01/24 14:19:11;;;;;;;11.25;4.97;;;;;;;;;;7410673;19;19998;-78
2023/01/24 14:22:04;;;;;;;12.68;6.38;;;;;;;;;;7414784;19;20002;-78
2023/01/24 14:24:51;;;;;;;14.57;6.05;;;;;;;;;;7416298;19;20015;-79
2023/01/24 14:27:29;;;;;;;12.75;5.57;;;;;;;;;;7401485;19;20346;-78
2023/01/24 14:30:15;;;;;;;11.77;5.00;;;;;;;;;;7399957;19;20033;-78
2023/01/24 14:32:47;;;;;;;15.30;6.72;;;;;;;;;;7394026;19;20483;-78
2023/01/24 14:35:29;;;;;;;13.65;5.97;;;;;;;;;;7399120;19;19999;-79
2023/01/24 14:38:11;;;;;;;14.63;5.05;;;;;;;;;;7401412;19;19995;-77
2023/01/24 14:40:40;;;;;;;9.40;5.30;;;;;;;;;;7410099;19;20019;-79
2023/01/24 14:43:05;;;;;;;15.93;5.25;;;;;;;;;;7424175;19;19998;-80
2023/01/24 14:45:32;;;;;;;15.65;5.90;;;;;;;;;;7418983;19;20037;-79
2023/01/24 14:47:59;;;;;;;12.25;5.50;;;;;;;;;;7407908;19;19995;-79
2023/01/24 14:50:33;;;;;;;22.90;6.65;;;;;;;;;;7392279;19;20001;-78
2023/01/24 14:53:20;;;;;;;13.85;6.13;;;;;;;;;;7392884;19;19994;-79
2023/01/24 14:55:46;;;;;;;17.70;6.03;;;;;;;;;;7391341;19;20357;-79
2023/01/24 14:58:26;;;;;;;18.17;6.60;;;;;;;;;;7394907;19;19999;-77
2023/01/24 15:00:57;;;;;;;12.18;4.85;;;;;;;;;;7392369;19;20026;-78
2023/01/24 15:03:25;;;;;;;;;;;;;;;;;;7392925;19;20344;-78
2023/01/24 15:05:56;;;;;;;8.80;4.65;;;;;;;;;;7394559;19;19919;-79
2023/01/24 15:08:22;;;;;;;9.32;4.32;;;;;;;;;;7392850;19;20023;-77
2023/01/24 15:11:07;;;;;;;17.70;6.95;;;;;;;;;;7393378;19;20003;-78
2023/01/24 15:13:42;;;;;;;7.00;3.30;;;;;;;;;;7392344;19;20010;-78
2023/01/24 15:16:16;;;;;;;10.10;4.72;;;;;;;;;;7394549;19;20013;-77
2023/01/24 15:18:48;;;;;;;16.75;6.72;;;;;;;;;;7390482;19;20105;-79
2023/01/24 15:21:33;;;;;;;13.82;6.30;;;;;;;;;;7389988;19;20471;-79
2023/01/24 15:24:00;;;;;;;14.93;5.75;;;;;;;;;;7392478;19;20006;-77
2023/01/24 15:26:30;;;;;;;14.85;6.22;;;;;;;;;;7390754;19;20039;-79
2023/01/24 15:28:56;;;;;;;7.70;4.30;;;;;;;;;;7388486;19;20427;-79
2023/01/24 15:31:26;;;;;;;15.60;6.10;;;;;;;;;;7390853;19;20002;-77